Time;durP1;ratioP1;P1;durP2;ratioP2;P2;SDS_P1;SDS_P2;PMS_P1;PMS_P2;Temp;Humidity;BMP_temperature;BMP_pressure;BME280_temperature;BME280_humidity;BME280_pressure;Samples;Min_cycle;Max_cycle;Signal;HPM_P1;HPM_P2
2021/06/14 00:00:24;;;;;;;3.83;2.90;;;21.80;60.30;;;;;;5074066;28;20034;-80
2021/06/14 00:02:52;;;;;;;4.25;3.33;;;21.80;60.40;;;;;;5073694;28;20027;-80
2021/06/14 00:05:30;;;;;;;3.67;2.95;;;21.70;60.20;;;;;;5061899;28;20402;-79
2021/06/14 00:07:57;;;;;;;3.85;2.88;;;21.80;60.50;;;;;;5103584;28;20385;-78
2021/06/14 00:10:29;;;;;;;3.25;2.88;;;21.80;60.40;;;;;;5120866;28;20209;-78
2021/06/14 00:12:56;;;;;;;4.27;3.00;;;21.70;60.30;;;;;;5119050;28;20113;-79
2021/06/14 00:15:22;;;;;;;3.20;2.90;;;21.70;60.30;;;;;;5083702;28;20280;-79
2021/06/14 00:17:48;;;;;;;4.55;3.05;;;21.70;60.30;;;;;;5083104;28;20028;-79
2021/06/14 00:20:17;;;;;;;4.38;3.22;;;21.60;60.10;;;;;;5101077;28;20074;-79
2021/06/14 00:22:44;;;;;;;3.55;3.25;;;21.60;60.20;;;;;;5088793;28;20012;-78
2021/06/14 00:25:12;;;;;;;3.10;2.83;;;21.60;60.20;;;;;;5087415;28;20028;-80
2021/06/14 00:27:39;;;;;;;3.25;3.00;;;21.50;60.10;;;;;;5103534;28;20035;-78
2021/06/14 00:30:06;;;;;;;4.60;3.08;;;21.50;60.20;;;;;;5119832;28;20038;-79
2021/06/14 00:32:33;;;;;;;3.00;2.80;;;21.40;60.10;;;;;;5103905;28;20057;-80
2021/06/14 00:34:59;;;;;;;3.30;2.80;;;21.40;60.20;;;;;;5102987;28;20039;-79
2021/06/14 00:37:25;;;;;;;3.00;2.70;;;21.30;60.10;;;;;;5104993;28;20376;-78
2021/06/14 00:39:51;;;;;;;3.60;3.28;;;21.30;60.10;;;;;;5103290;28;20034;-80
2021/06/14 00:42:17;;;;;;;3.85;3.10;;;21.30;60.20;;;;;;5108674;28;20026;-80
2021/06/14 00:44:43;;;;;;;3.30;2.90;;;21.20;60.10;;;;;;5114399;28;20035;-79
2021/06/14 00:47:10;;;;;;;3.42;2.78;;;21.20;60.20;;;;;;5112102;28;20032;-78
2021/06/14 00:49:37;;;;;;;3.47;3.17;;;21.20;60.30;;;;;;5092376;28;20406;-80
2021/06/14 00:52:04;;;;;;;3.22;2.92;;;21.10;60.10;;;;;;5074532;28;20134;-79
2021/06/14 00:54:31;;;;;;;3.40;3.10;;;21.10;60.30;;;;;;5077321;28;20067;-79
2021/06/14 00:56:57;;;;;;;3.22;2.70;;;21.00;60.10;;;;;;5091174;28;20027;-80
2021/06/14 00:59:25;;;;;;;3.88;3.10;;;21.00;60.20;;;;;;5091268;28;20027;-80
2021/06/14 01:01:51;;;;;;;3.22;2.90;;;21.00;60.30;;;;;;5074571;28;20096;-79
2021/06/14 01:04:17;;;;;;;3.40;2.90;;;20.90;60.20;;;;;;5091403;28;20479;-78
2021/06/14 01:06:51;;;;;;;3.92;2.90;;;20.90;60.30;;;;;;5117632;28;20042;-78
2021/06/14 01:09:17;;;;;;;;;;;20.80;60.10;;;;;;5101011;28;20106;-79
2021/06/14 01:11:53;;;;;;;3.17;2.85;;;20.80;60.10;;;;;;5124985;27;19919;-79
2021/06/14 01:14:50;;;;;;;3.35;2.53;;;20.80;60.20;;;;;;5100040;28;20055;-78
2021/06/14 01:17:35;;;;;;;3.33;3.03;;;20.70;60.10;;;;;;5127252;27;20031;-80
2021/06/14 01:20:22;;;;;;;4.38;3.00;;;20.70;60.20;;;;;;5097153;28;20105;-80
2021/06/14 01:23:16;;;;;;;3.42;2.60;;;20.60;60.10;;;;;;5093920;28;20042;-79
2021/06/14 01:26:16;;;;;;;3.00;2.58;;;20.60;60.20;;;;;;5057424;28;20043;-78
2021/06/14 01:28:52;;;;;;;3.38;2.72;;;20.50;60.20;;;;;;5090831;28;20387;-80
2021/06/14 01:31:25;;;;;;;3.35;2.83;;;20.50;60.20;;;;;;5103735;28;20087;-80
2021/06/14 01:33:53;;;;;;;4.40;2.90;;;20.50;60.30;;;;;;5077501;28;20067;-80
2021/06/14 01:36:27;;;;;;;5.38;3.10;;;20.40;60.20;;;;;;5094913;28;20081;-80
2021/06/14 01:38:54;;;;;;;4.25;3.00;;;20.30;60.20;;;;;;5104600;28;20119;-80
2021/06/14 01:41:23;;;;;;;3.50;3.20;;;20.30;60.20;;;;;;5074152;28;20036;-82
2021/06/14 01:43:54;;;;;;;3.30;3.00;;;20.30;60.30;;;;;;5057361;28;20038;-79
2021/06/14 01:46:30;;;;;;;3.40;2.88;;;20.20;60.20;;;;;;5083861;28;20378;-79
2021/06/14 01:49:01;;;;;;;3.78;3.10;;;20.20;60.40;;;;;;5096749;28;20459;-79
2021/06/14 01:51:31;;;;;;;4.97;2.97;;;20.10;60.20;;;;;;5096640;28;20019;-80
2021/06/14 01:54:03;;;;;;;4.35;3.22;;;20.10;60.30;;;;;;5096590;28;20410;-80
2021/06/14 01:56:34;;;;;;;3.10;2.80;;;20.10;60.40;;;;;;5115007;28;20024;-79
2021/06/14 01:59:02;;;;;;;3.08;2.80;;;20.00;60.30;;;;;;5096382;28;20057;-79
2021/06/14 02:01:31;;;;;;;3.60;3.10;;;20.00;60.40;;;;;;5079841;28;20032;-80
2021/06/14 02:04:00;;;;;;;4.80;2.80;;;20.00;60.50;;;;;;5096489;28;20601;-80
2021/06/14 02:06:41;;;;;;;5.25;3.05;;;20.00;60.60;;;;;;5080972;28;20390;-79
2021/06/14 02:09:12;;;;;;;2.80;2.55;;;19.90;60.40;;;;;;5096071;28;20019;-80
2021/06/14 02:11:49;;;;;;;4.93;3.00;;;19.90;60.50;;;;;;5095903;28;20028;-81
2021/06/14 02:14:18;;;;;;;5.30;3.22;;;19.80;60.40;;;;;;5096129;28;20440;-80
2021/06/14 02:16:46;;;;;;;2.88;2.58;;;19.80;60.50;;;;;;5114355;28;20087;-81
2021/06/14 02:19:13;;;;;;;3.83;2.63;;;19.80;60.50;;;;;;5078871;28;20027;-80
2021/06/14 02:21:45;;;;;;;4.55;2.90;;;19.80;60.60;;;;;;5096283;28;20016;-80
2021/06/14 02:24:13;;;;;;;3.90;2.97;;;19.70;60.50;;;;;;5096137;28;20031;-79
2021/06/14 02:26:41;;;;;;;3.30;2.53;;;19.70;60.50;;;;;;5078067;28;20027;-80
2021/06/14 02:29:08;;;;;;;3.35;3.03;;;19.60;60.40;;;;;;5078920;28;20155;-80
2021/06/14 02:31:35;;;;;;;2.88;2.58;;;19.60;60.50;;;;;;5095820;28;20028;-80
2021/06/14 02:34:03;;;;;;;3.65;3.33;;;19.60;60.50;;;;;;5078692;28;20031;-79
2021/06/14 02:36:28;;;;;;;3.88;2.95;;;19.60;60.60;;;;;;5078868;28;20046;-79
2021/06/14 02:38:58;;;;;;;4.45;3.03;;;19.50;60.50;;;;;;5079205;28;20039;-79
2021/06/14 02:41:25;;;;;;;3.00;2.70;;;19.50;60.50;;;;;;5078880;28;20043;-80
2021/06/14 02:43:51;;;;;;;3.90;2.80;;;19.50;60.60;;;;;;5078617;28;20028;-81
2021/06/14 02:46:18;;;;;;;3.30;2.90;;;19.40;60.50;;;;;;5078353;28;20027;-80
2021/06/14 02:48:48;;;;;;;2.95;2.60;;;19.40;60.50;;;;;;5078531;28;20070;-79
2021/06/14 02:51:16;;;;;;;4.70;2.80;;;19.40;60.70;;;;;;5078850;28;20032;-80
2021/06/14 02:53:45;;;;;;;3.28;2.60;;;19.30;60.50;;;;;;5078685;28;20491;-79
2021/06/14 02:56:18;;;;;;;3.58;2.58;;;19.30;60.60;;;;;;5078269;28;20023;-79
2021/06/14 02:58:47;;;;;;;2.90;2.70;;;19.30;60.70;;;;;;5078396;28;20027;-79
2021/06/14 03:01:15;;;;;;;3.00;2.65;;;19.20;60.50;;;;;;5095110;28;20535;-79
2021/06/14 03:03:44;;;;;;;3.00;2.70;;;19.20;60.60;;;;;;5078372;28;20414;-79
2021/06/14 03:06:17;;;;;;;3.78;2.67;;;19.20;60.70;;;;;;5079000;28;20081;-79
2021/06/14 03:08:46;;;;;;;2.83;2.60;;;19.10;60.60;;;;;;5078810;28;20068;-79
2021/06/14 03:11:13;;;;;;;3.25;2.50;;;19.10;60.70;;;;;;5077895;28;20028;-78
2021/06/14 03:13:44;;;;;;;3.25;2.92;;;19.00;60.50;;;;;;5074125;28;20496;-79
2021/06/14 03:16:17;;;;;;;5.60;2.70;;;19.00;60.60;;;;;;5075109;28;20398;-79
2021/06/14 03:18:45;;;;;;;4.90;3.03;;;19.00;60.70;;;;;;5074955;28;20099;-80
2021/06/14 03:21:14;;;;;;;3.20;2.63;;;19.00;60.60;;;;;;5091297;28;20036;-79
2021/06/14 03:23:40;;;;;;;4.28;2.83;;;18.90;60.50;;;;;;5074521;28;20414;-78
2021/06/14 03:26:12;;;;;;;5.80;3.03;;;18.90;60.50;;;;;;5074673;28;20078;-81
2021/06/14 03:28:46;;;;;;;2.80;2.42;;;18.90;60.60;;;;;;5091732;28;20032;-80
2021/06/14 03:31:15;;;;;;;3.92;2.92;;;18.80;60.60;;;;;;5091659;28;20028;-78
2021/06/14 03:33:44;;;;;;;2.75;2.40;;;18.80;60.50;;;;;;5074350;28;20475;-79
2021/06/14 03:36:12;;;;;;;4.28;2.95;;;18.80;60.60;;;;;;5090885;28;20039;-80
2021/06/14 03:38:40;;;;;;;4.50;2.95;;;18.80;60.70;;;;;;5092278;28;20020;-80
2021/06/14 03:41:06;;;;;;;4.93;2.95;;;18.80;60.70;;;;;;5092386;28;20032;-79
2021/06/14 03:43:32;;;;;;;4.93;2.85;;;18.70;60.60;;;;;;5092360;28;20411;-80
2021/06/14 03:46:00;;;;;;;3.75;2.80;;;18.70;60.60;;;;;;5092416;28;20028;-79
2021/06/14 03:48:26;;;;;;;5.18;2.88;;;18.70;60.70;;;;;;5092138;28;20136;-79
2021/06/14 03:50:54;;;;;;;3.70;2.75;;;18.60;60.50;;;;;;5091923;28;20474;-80
2021/06/14 03:53:28;;;;;;;3.63;2.63;;;18.60;60.60;;;;;;5074045;28;20035;-79
2021/06/14 03:55:54;;;;;;;4.53;3.30;;;18.60;60.70;;;;;;5091914;28;20039;-79
2021/06/14 03:58:20;;;;;;;3.95;2.90;;;18.60;60.70;;;;;;5091800;28;20078;-79
2021/06/14 04:00:46;;;;;;;3.05;2.53;;;18.50;60.50;;;;;;5091954;28;20425;-80
2021/06/14 04:03:12;;;;;;;3.55;2.80;;;18.50;60.60;;;;;;5091822;28;20085;-80
2021/06/14 04:05:43;;;;;;;3.50;3.00;;;18.50;60.70;;;;;;5074367;28;20028;-79
2021/06/14 04:08:11;;;;;;;3.97;2.85;;;18.50;60.70;;;;;;5090600;28;20544;-80
2021/06/14 04:10:38;;;;;;;2.50;2.30;;;18.40;60.60;;;;;;5092018;28;20036;-80
2021/06/14 04:13:07;;;;;;;4.15;2.90;;;18.40;60.70;;;;;;5090114;28;20075;-79
2021/06/14 04:15:34;;;;;;;4.05;3.28;;;18.40;60.80;;;;;;5091727;28;20048;-79
2021/06/14 04:18:00;;;;;;;3.45;3.05;;;18.40;60.80;;;;;;5091825;28;20066;-78
2021/06/14 04:20:26;;;;;;;3.63;3.10;;;18.30;60.60;;;;;;5090584;28;20028;-78
2021/06/14 04:22:52;;;;;;;5.18;2.72;;;18.30;60.70;;;;;;5091206;28;20269;-80
2021/06/14 04:25:19;;;;;;;2.80;2.58;;;18.30;60.80;;;;;;5090595;28;20023;-78
2021/06/14 04:27:46;;;;;;;2.78;2.53;;;18.30;60.80;;;;;;5091600;28;20059;-78
2021/06/14 04:30:14;;;;;;;3.10;2.80;;;18.30;60.90;;;;;;5091312;28;20069;-78
2021/06/14 04:32:40;;;;;;;5.05;2.60;;;18.20;60.70;;;;;;5073440;28;20070;-79
2021/06/14 04:35:07;;;;;;;3.03;2.70;;;18.20;60.80;;;;;;5089982;28;20040;-79
2021/06/14 04:37:34;;;;;;;3.00;2.75;;;18.20;60.80;;;;;;5073228;28;20127;-79
2021/06/14 04:40:00;;;;;;;3.22;2.92;;;18.20;60.80;;;;;;5056654;28;20105;-78
2021/06/14 04:42:27;;;;;;;3.55;3.25;;;18.20;60.80;;;;;;5073428;28;20507;-80
2021/06/14 04:44:53;;;;;;;2.75;2.50;;;18.10;60.60;;;;;;5073029;28;20028;-78
2021/06/14 04:47:20;;;;;;;3.35;2.45;;;18.20;60.80;;;;;;5072086;28;20036;-79
2021/06/14 04:49:47;;;;;;;2.78;2.30;;;18.20;60.90;;;;;;5068211;28;20447;-80
2021/06/14 04:52:13;;;;;;;3.03;2.72;;;18.20;60.90;;;;;;5088288;28;20114;-80
2021/06/14 04:54:40;;;;;;;3.13;2.83;;;18.20;60.90;;;;;;5090171;28;20089;-80
2021/06/14 04:57:06;;;;;;;4.22;2.65;;;18.20;60.90;;;;;;5073403;28;20032;-79
2021/06/14 04:59:32;;;;;;;3.00;2.70;;;18.20;60.90;;;;;;5069436;28;20138;-79
2021/06/14 05:02:00;;;;;;;3.22;2.65;;;18.20;60.90;;;;;;5072426;28;20385;-80
2021/06/14 05:04:26;;;;;;;3.38;2.92;;;18.20;60.90;;;;;;5067334;28;20379;-80
2021/06/14 05:06:52;;;;;;;3.28;2.63;;;18.30;61.00;;;;;;5052182;28;20490;-79
2021/06/14 05:09:18;;;;;;;4.15;2.88;;;18.30;61.00;;;;;;5068026;28;20100;-79
2021/06/14 05:11:47;;;;;;;3.95;3.00;;;18.30;61.00;;;;;;5071594;28;20467;-79
2021/06/14 05:14:15;;;;;;;3.65;2.80;;;18.30;61.00;;;;;;5063580;28;20059;-79
2021/06/14 05:16:42;;;;;;;3.97;3.00;;;18.30;61.00;;;;;;5059721;28;20036;-80
2021/06/14 05:19:08;;;;;;;3.97;3.25;;;18.30;60.90;;;;;;5036891;28;20356;-78
2021/06/14 05:21:34;;;;;;;3.70;3.40;;;18.40;61.10;;;;;;5031792;28;20029;-78
2021/06/14 05:24:00;;;;;;;3.65;3.05;;;18.40;61.10;;;;;;5045173;28;20027;-78
2021/06/14 05:26:26;;;;;;;3.38;3.08;;;18.40;61.10;;;;;;5047961;28;20028;-77
2021/06/14 05:28:52;;;;;;;4.05;3.75;;;18.40;61.70;;;;;;5039257;28;20175;-78
2021/06/14 05:31:18;;;;;;;6.55;4.25;;;18.40;61.40;;;;;;5051922;28;20042;-78
2021/06/14 05:33:44;;;;;;;5.03;4.32;;;18.50;61.90;;;;;;5035625;28;20511;-78
2021/06/14 05:36:11;;;;;;;7.25;5.07;;;18.50;62.20;;;;;;5051971;28;20031;-79
2021/06/14 05:38:37;;;;;;;6.47;4.63;;;18.60;62.60;;;;;;5052030;28;20549;-77
2021/06/14 05:41:04;;;;;;;6.72;4.07;;;18.60;62.80;;;;;;5067646;28;20024;-78
2021/06/14 05:43:30;;;;;;;6.03;4.65;;;18.70;63.20;;;;;;5068152;28;20032;-78
2021/06/14 05:45:56;;;;;;;6.53;4.85;;;18.70;63.30;;;;;;5051113;28;20032;-79
2021/06/14 05:48:22;;;;;;;9.73;6.53;;;18.80;63.70;;;;;;5050733;28;20061;-78
2021/06/14 05:50:48;;;;;;;9.60;6.60;;;18.80;63.80;;;;;;5051218;28;20031;-79
2021/06/14 05:53:14;;;;;;;10.50;6.95;;;18.90;63.90;;;;;;5026617;28;20100;-78
2021/06/14 05:55:40;;;;;;;8.32;6.70;;;19.00;64.00;;;;;;5034547;28;20035;-80
2021/06/14 05:58:06;;;;;;;8.63;6.22;;;19.00;63.90;;;;;;5043245;28;20158;-80
2021/06/14 06:00:34;;;;;;;11.10;6.88;;;19.10;64.00;;;;;;5088879;28;20043;-83
2021/06/14 06:03:01;;;;;;;7.88;6.53;;;19.20;64.00;;;;;;5067017;28;20070;-82
2021/06/14 06:05:28;;;;;;;11.55;6.85;;;19.30;64.10;;;;;;5071351;28;20032;-79
2021/06/14 06:07:54;;;;;;;10.05;5.80;;;19.40;64.20;;;;;;5054436;28;20348;-79
2021/06/14 06:10:19;;;;;;;10.90;6.40;;;19.40;64.10;;;;;;5054214;28;20491;-80
2021/06/14 06:12:45;;;;;;;9.02;6.25;;;19.50;64.20;;;;;;5053470;28;20044;-79
2021/06/14 06:15:18;;;;;;;12.25;6.32;;;19.60;64.20;;;;;;5045233;28;20068;-82
2021/06/14 06:17:45;;;;;;;;;;;19.70;64.10;;;;;;5035158;28;20387;-81
2021/06/14 06:20:14;;;;;;;12.38;5.70;;;19.80;63.90;;;;;;5034910;28;20372;-80
2021/06/14 06:22:41;;;;;;;11.20;7.07;;;19.90;64.00;;;;;;5037523;28;20024;-81
2021/06/14 06:25:11;;;;;;;9.45;6.30;;;20.00;64.80;;;;;;5034552;28;20051;-82
2021/06/14 06:27:38;;;;;;;9.10;6.15;;;20.10;65.40;;;;;;5034266;28;20028;-86
2021/06/14 06:30:08;;;;;;;6.05;5.25;;;20.30;65.80;;;;;;5034980;28;20047;-80
2021/06/14 06:32:34;;;;;;;7.75;5.40;;;20.50;66.10;;;;;;5034970;28;20510;-82
2021/06/14 06:35:01;;;;;;;8.60;5.00;;;20.80;66.50;;;;;;5043195;28;20052;-82
2021/06/14 06:37:27;;;;;;;7.68;4.95;;;21.10;66.80;;;;;;5017668;28;20162;-79
2021/06/14 06:39:53;;;;;;;7.90;4.72;;;21.30;66.70;;;;;;5033705;28;20125;-79
2021/06/14 06:42:19;;;;;;;9.55;4.70;;;21.70;67.10;;;;;;5034504;28;20032;-79
2021/06/14 06:44:45;;;;;;;8.07;4.88;;;22.00;67.20;;;;;;5034646;28;20032;-79
2021/06/14 06:47:11;;;;;;;7.47;4.40;;;22.30;67.30;;;;;;5033866;28;20028;-80
2021/06/14 06:49:38;;;;;;;6.07;4.25;;;22.70;67.40;;;;;;5048124;28;20025;-80
2021/06/14 06:52:05;;;;;;;7.32;4.10;;;23.10;67.50;;;;;;5067462;28;20187;-79
2021/06/14 06:54:31;;;;;;;9.00;4.93;;;23.60;67.60;;;;;;5053958;28;20040;-78
2021/06/14 06:56:57;;;;;;;5.70;4.38;;;23.90;67.50;;;;;;5070662;28;20438;-79
2021/06/14 06:59:24;;;;;;;5.65;4.40;;;24.30;67.40;;;;;;5054086;28;20036;-79
2021/06/14 07:01:53;;;;;;;4.90;3.97;;;24.70;67.30;;;;;;5070410;28;20035;-78
2021/06/14 07:04:19;;;;;;;5.78;3.70;;;25.10;67.20;;;;;;5088237;28;20081;-78
2021/06/14 07:06:45;;;;;;;6.07;3.70;;;25.40;66.50;;;;;;5070435;28;20032;-80
2021/06/14 07:09:11;;;;;;;5.35;3.42;;;25.90;66.10;;;;;;5073181;28;20115;-78
2021/06/14 07:11:38;;;;;;;7.25;3.80;;;26.20;65.50;;;;;;5049994;28;20028;-79
2021/06/14 07:14:04;;;;;;;4.32;3.55;;;26.60;64.90;;;;;;5079771;28;20051;-80
2021/06/14 07:16:31;;;;;;;5.93;3.03;;;27.00;64.30;;;;;;5108765;28;20038;-77
2021/06/14 07:18:57;;;;;;;4.57;3.08;;;27.40;63.70;;;;;;5085971;28;20135;-79
2021/06/14 07:21:24;;;;;;;4.57;3.17;;;27.70;63.10;;;;;;5098335;28;20035;-80
2021/06/14 07:23:50;;;;;;;4.97;3.00;;;28.10;62.40;;;;;;5090137;28;20027;-80
2021/06/14 07:26:17;;;;;;;7.28;3.65;;;28.50;61.80;;;;;;5108660;28;20432;-81
2021/06/14 07:28:43;;;;;;;5.07;2.55;;;28.80;61.20;;;;;;5073117;28;20532;-79
2021/06/14 07:31:10;;;;;;;4.07;3.17;;;29.20;60.60;;;;;;5057078;28;20039;-80
2021/06/14 07:33:40;;;;;;;4.53;2.70;;;29.50;59.90;;;;;;5089693;28;20031;-81
2021/06/14 07:36:07;;;;;;;3.78;2.80;;;29.90;59.30;;;;;;5090018;28;20024;-79
2021/06/14 07:38:33;;;;;;;5.30;2.58;;;30.20;58.60;;;;;;5090210;28;20020;-80
2021/06/14 07:40:59;;;;;;;3.55;2.63;;;30.60;58.00;;;;;;5108867;28;20031;-81
2021/06/14 07:43:26;;;;;;;4.88;2.60;;;31.00;57.30;;;;;;5099194;28;20027;-83
2021/06/14 07:45:53;;;;;;;3.65;2.50;;;31.20;56.60;;;;;;5099412;28;20435;-80
2021/06/14 07:48:22;;;;;;;5.07;2.55;;;31.60;56.00;;;;;;5106296;28;20431;-80
2021/06/14 07:50:50;;;;;;;2.53;2.15;;;32.00;55.40;;;;;;5090160;28;20505;-81
2021/06/14 07:53:16;;;;;;;3.10;2.30;;;32.30;54.70;;;;;;5106935;28;20032;-80
2021/06/14 07:55:42;;;;;;;4.03;2.60;;;32.70;54.20;;;;;;5090271;28;20027;-81
2021/06/14 07:58:08;;;;;;;3.40;2.17;;;33.00;53.50;;;;;;5089144;28;20027;-80
2021/06/14 08:00:36;;;;;;;3.25;2.13;;;33.30;52.90;;;;;;5072640;28;20032;-79
2021/06/14 08:03:02;;;;;;;4.22;2.35;;;33.70;52.20;;;;;;5072217;28;20551;-80
2021/06/14 08:05:28;;;;;;;2.40;1.90;;;34.00;51.60;;;;;;5072080;28;20110;-80
2021/06/14 08:07:54;;;;;;;3.08;1.95;;;34.40;50.90;;;;;;5072327;28;20028;-81
2021/06/14 08:10:21;;;;;;;2.53;2.10;;;34.70;50.30;;;;;;5072450;28;20084;-79
2021/06/14 08:12:50;;;;;;;2.63;1.88;;;35.10;49.60;;;;;;5081653;28;20136;-81
2021/06/14 08:15:25;;;;;;;3.30;2.17;;;35.40;48.90;;;;;;5068825;28;20047;-80
2021/06/14 08:17:54;;;;;;;3.45;2.15;;;35.80;48.10;;;;;;5086992;28;20450;-80
2021/06/14 08:20:40;;;;;;;2.50;1.95;;;36.10;47.60;;;;;;5068466;28;20028;-79
2021/06/14 08:25:37;;;;;;;2.63;1.77;;;36.80;46.30;;;;;;5086236;28;20027;-78
2021/06/14 08:28:04;;;;;;;2.63;1.70;;;37.10;45.60;;;;;;5087492;28;20105;-79
2021/06/14 08:30:31;;;;;;;2.70;2.30;;;37.50;45.00;;;;;;5087431;28;20035;-80
2021/06/14 08:32:57;;;;;;;2.17;1.48;;;37.70;44.40;;;;;;5086653;28;20032;-79
2021/06/14 08:35:26;;;;;;;2.63;1.80;;;38.00;43.90;;;;;;5086721;28;20055;-79
2021/06/14 08:37:53;;;;;;;2.00;1.35;;;38.20;43.30;;;;;;5086969;28;20099;-80
2021/06/14 08:40:22;;;;;;;2.33;1.95;;;38.40;42.80;;;;;;5086476;28;20051;-79
2021/06/14 08:42:49;;;;;;;3.45;1.70;;;38.70;42.40;;;;;;5068318;28;20032;-80
2021/06/14 08:45:16;;;;;;;2.92;1.67;;;38.80;41.90;;;;;;5086742;28;20032;-81
2021/06/14 08:47:44;;;;;;;2.85;1.50;;;38.90;41.50;;;;;;5082800;28;20580;-82
2021/06/14 08:50:13;;;;;;;3.28;1.70;;;39.10;41.20;;;;;;5075587;28;20245;-80
2021/06/14 08:52:40;;;;;;;2.13;1.33;;;39.10;40.90;;;;;;5086297;28;20051;-81
2021/06/14 08:55:10;;;;;;;2.10;1.80;;;39.10;40.80;;;;;;5051389;28;20050;-81
2021/06/14 08:57:36;;;;;;;2.90;1.88;;;38.90;40.70;;;;;;5086581;28;20081;-81
2021/06/14 09:00:06;;;;;;;3.97;1.95;;;38.80;40.80;;;;;;5051497;28;20118;-80
2021/06/14 09:02:32;;;;;;;3.60;2.00;;;38.70;40.30;;;;;;5068536;28;20153;-80
2021/06/14 09:04:58;;;;;;;3.45;1.70;;;38.30;40.50;;;;;;5086577;28;20066;-79
2021/06/14 09:07:24;;;;;;;3.72;2.03;;;37.90;40.90;;;;;;5086598;28;20493;-79
2021/06/14 09:09:50;;;;;;;4.32;1.90;;;37.50;41.60;;;;;;5087120;28;20059;-81
2021/06/14 09:12:16;;;;;;;2.10;1.90;;;37.10;42.30;;;;;;5051350;28;20495;-82
2021/06/14 09:14:45;;;;;;;2.33;1.67;;;36.70;42.80;;;;;;5086235;28;20054;-81
2021/06/14 09:17:13;;;;;;;2.92;1.58;;;36.40;43.20;;;;;;5106715;28;20035;-82
2021/06/14 09:19:42;;;;;;;2.53;1.83;;;36.20;43.40;;;;;;5088319;28;20602;-81
2021/06/14 09:22:18;;;;;;;3.63;2.00;;;36.20;43.60;;;;;;5086592;28;20487;-80
2021/06/14 09:25:00;;;;;;;3.42;1.85;;;36.10;43.50;;;;;;5088397;28;20032;-81
2021/06/14 09:27:39;;;;;;;2.55;1.63;;;36.20;43.60;;;;;;5106456;28;20401;-82
2021/06/14 09:30:14;;;;;;;2.92;1.67;;;36.10;43.50;;;;;;5086208;28;20050;-79
2021/06/14 09:32:58;;;;;;;2.25;1.67;;;36.10;43.60;;;;;;5056126;28;20357;-80
2021/06/14 09:35:29;;;;;;;2.47;1.60;;;36.00;43.60;;;;;;5086442;28;20734;-80
2021/06/14 09:37:58;;;;;;;2.78;1.60;;;35.90;43.70;;;;;;5058175;28;20128;-80
2021/06/14 09:40:32;;;;;;;3.10;2.10;;;35.80;43.90;;;;;;5110274;28;20062;-80
2021/06/14 09:42:59;;;;;;;2.50;1.60;;;35.70;44.20;;;;;;5110473;28;20458;-79
2021/06/14 09:45:25;;;;;;;2.58;1.80;;;35.50;44.40;;;;;;5110365;28;20028;-79
2021/06/14 09:47:54;;;;;;;2.58;1.55;;;35.40;44.70;;;;;;5110595;28;20449;-80
2021/06/14 09:50:32;;;;;;;2.08;1.65;;;35.30;44.90;;;;;;5072081;28;20495;-79
2021/06/14 09:53:34;;;;;;;1.45;1.30;;;35.20;45.10;;;;;;5091141;28;20039;-80
2021/06/14 09:56:14;;;;;;;2.08;1.77;;;35.20;45.30;;;;;;5084552;28;20196;-80
2021/06/14 09:58:42;;;;;;;2.75;1.98;;;35.10;45.50;;;;;;5091804;28;20027;-80
2021/06/14 10:01:08;;;;;;;1.85;1.58;;;35.00;45.50;;;;;;5075158;28;20031;-79
2021/06/14 10:03:46;;;;;;;3.38;2.28;;;35.00;45.60;;;;;;5079277;28;20550;-79
2021/06/14 10:06:14;;;;;;;2.00;1.80;;;35.00;45.70;;;;;;5071551;28;20028;-78
2021/06/14 10:08:44;;;;;;;2.53;1.80;;;35.00;45.70;;;;;;5050321;28;20024;-79
2021/06/14 10:11:17;;;;;;;2.72;2.05;;;35.00;45.70;;;;;;5082501;28;20494;-78
2021/06/14 10:13:47;;;;;;;2.53;1.70;;;35.00;45.80;;;;;;5088918;28;20133;-78
2021/06/14 10:16:22;;;;;;;3.10;1.90;;;35.00;45.80;;;;;;5071430;28;20198;-79
2021/06/14 10:18:53;;;;;;;2.50;2.00;;;35.00;45.80;;;;;;5089345;28;20036;-78
2021/06/14 10:21:31;;;;;;;2.63;1.90;;;35.00;45.80;;;;;;5071670;28;20047;-78
2021/06/14 10:24:06;;;;;;;2.83;1.83;;;35.10;45.90;;;;;;5081998;28;20036;-79
2021/06/14 10:26:33;;;;;;;3.38;2.20;;;35.10;45.90;;;;;;5109089;28;20451;-78
2021/06/14 10:29:00;;;;;;;3.40;2.10;;;35.10;45.90;;;;;;5108814;28;20050;-78
2021/06/14 10:31:26;;;;;;;1.98;1.77;;;35.20;46.00;;;;;;5109729;28;20027;-78
2021/06/14 10:33:55;;;;;;;2.40;2.15;;;35.20;46.00;;;;;;5109508;28;20032;-78
2021/06/14 10:36:26;;;;;;;3.38;2.33;;;35.30;46.00;;;;;;5091520;28;20558;-79
2021/06/14 10:38:54;;;;;;;2.28;2.05;;;35.30;45.90;;;;;;5091310;28;20023;-79
2021/06/14 10:41:22;;;;;;;2.83;2.13;;;35.30;45.90;;;;;;5091613;28;20554;-78
2021/06/14 10:43:49;;;;;;;3.70;2.40;;;35.40;45.90;;;;;;5087636;28;20024;-78
2021/06/14 10:46:17;;;;;;;2.67;2.20;;;35.40;45.90;;;;;;5088357;28;20024;-78
2021/06/14 10:48:46;;;;;;;3.35;2.65;;;35.50;45.90;;;;;;5088772;28;20032;-78
2021/06/14 10:51:18;;;;;;;2.35;2.05;;;35.60;45.90;;;;;;5053996;28;20085;-79
2021/06/14 10:53:50;;;;;;;3.03;2.37;;;35.60;45.90;;;;;;5088305;28;20390;-77
2021/06/14 10:56:23;;;;;;;3.05;2.20;;;35.60;45.80;;;;;;5089525;28;20513;-80
2021/06/14 10:58:56;;;;;;;2.45;2.22;;;35.70;45.80;;;;;;5089018;28;20028;-78
2021/06/14 11:01:28;;;;;;;;;;;35.70;45.80;;;;;;5089693;28;20032;-78
2021/06/14 11:03:54;;;;;;;2.70;1.88;;;35.70;45.90;;;;;;5086589;28;19912;-78
2021/06/14 11:06:31;;;;;;;3.20;2.35;;;35.80;45.90;;;;;;5070782;28;20490;-78
2021/06/14 11:09:03;;;;;;;2.78;2.00;;;35.80;45.80;;;;;;5073686;28;20031;-78
2021/06/14 11:11:31;;;;;;;2.15;1.85;;;35.80;45.70;;;;;;5100945;28;20273;-77
2021/06/14 11:13:57;;;;;;;4.45;2.17;;;35.90;45.70;;;;;;5089498;28;20082;-77
2021/06/14 11:16:35;;;;;;;3.55;2.50;;;35.90;45.70;;;;;;5089184;28;20459;-80
2021/06/14 11:19:03;;;;;;;2.70;1.90;;;36.00;45.70;;;;;;5082068;28;20462;-79
2021/06/14 11:21:29;;;;;;;2.03;1.77;;;36.10;45.70;;;;;;5069686;28;20081;-79
2021/06/14 11:24:06;;;;;;;2.13;1.80;;;36.10;45.60;;;;;;5107520;28;20428;-79
2021/06/14 11:26:32;;;;;;;3.05;2.30;;;36.10;45.60;;;;;;5061474;28;20106;-80
2021/06/14 11:29:10;;;;;;;2.42;2.08;;;36.20;45.60;;;;;;5068076;28;20024;-80
2021/06/14 11:31:36;;;;;;;3.10;2.17;;;36.20;45.50;;;;;;5069361;28;20028;-79
2021/06/14 11:34:05;;;;;;;4.60;2.38;;;36.30;45.50;;;;;;5081015;28;20043;-79
2021/06/14 11:36:34;;;;;;;3.90;2.50;;;36.40;45.50;;;;;;5086512;28;20085;-78
2021/06/14 11:39:14;;;;;;;2.53;1.90;;;36.40;45.40;;;;;;5089992;28;20024;-80
2021/06/14 11:41:40;;;;;;;3.53;1.95;;;36.40;45.30;;;;;;5072896;28;20458;-80
2021/06/14 11:44:29;;;;;;;2.42;1.73;;;36.50;45.40;;;;;;5089165;28;20077;-79
2021/06/14 11:47:10;;;;;;;2.50;1.80;;;36.50;45.40;;;;;;5108358;28;20770;-81
2021/06/14 11:49:36;;;;;;;1.92;1.75;;;36.50;45.30;;;;;;5107507;28;20049;-81
2021/06/14 11:52:18;;;;;;;2.47;1.75;;;36.60;45.40;;;;;;5107888;28;20035;-81
2021/06/14 11:54:45;;;;;;;2.40;1.90;;;36.60;45.40;;;;;;5107767;28;20040;-82
2021/06/14 11:57:11;;;;;;;2.35;1.67;;;36.60;45.30;;;;;;5108097;28;20114;-81
2021/06/14 11:59:38;;;;;;;2.25;1.77;;;36.70;45.40;;;;;;5086038;28;20036;-81
2021/06/14 12:02:25;;;;;;;2.83;1.92;;;36.70;45.30;;;;;;5080970;28;20095;-81
2021/06/14 12:04:56;;;;;;;3.38;2.10;;;36.80;45.40;;;;;;5087350;28;20039;-79
2021/06/14 12:07:44;;;;;;;1.75;1.65;;;36.80;45.30;;;;;;5087882;28;20042;-80
2021/06/14 12:10:13;;;;;;;3.05;1.88;;;36.90;45.40;;;;;;5069296;28;20050;-82
2021/06/14 12:12:40;;;;;;;1.88;1.50;;;36.80;45.30;;;;;;5090520;28;20406;-81
2021/06/14 12:15:08;;;;;;;2.08;1.80;;;36.80;45.30;;;;;;5107508;28;20402;-79
2021/06/14 12:17:38;;;;;;;2.05;1.73;;;36.90;45.40;;;;;;5107922;28;20027;-81
2021/06/14 12:20:08;;;;;;;3.88;1.70;;;36.90;45.30;;;;;;5089334;28;20081;-81
2021/06/14 12:22:35;;;;;;;2.72;1.83;;;37.00;45.30;;;;;;5089716;28;20031;-80
2021/06/14 12:25:12;;;;;;;2.22;1.73;;;37.00;45.30;;;;;;5106928;28;20054;-79
2021/06/14 12:27:38;;;;;;;3.45;2.08;;;37.10;45.30;;;;;;5107338;28;20114;-81
2021/06/14 12:30:11;;;;;;;2.53;1.85;;;37.10;45.30;;;;;;5107706;28;20332;-79
2021/06/14 12:32:38;;;;;;;;;;;37.10;45.20;;;;;;5072753;28;20043;-82
2021/06/14 12:35:07;;;;;;;3.08;1.65;;;37.20;45.40;;;;;;5089288;28;19919;-81
2021/06/14 12:37:33;;;;;;;3.15;1.45;;;37.20;45.20;;;;;;5071637;28;20221;-81
2021/06/14 12:40:01;;;;;;;2.22;1.48;;;37.30;45.20;;;;;;5071951;28;20039;-81
2021/06/14 12:42:28;;;;;;;2.95;1.70;;;37.30;45.10;;;;;;5071621;28;20474;-81
2021/06/14 12:45:08;;;;;;;3.13;1.85;;;37.40;45.10;;;;;;5072169;28;20080;-79
2021/06/14 12:47:40;;;;;;;3.17;1.88;;;37.40;45.00;;;;;;5089161;28;20082;-81
2021/06/14 12:50:06;;;;;;;2.88;2.05;;;37.40;45.00;;;;;;5062158;28;20123;-82
2021/06/14 12:52:32;;;;;;;3.15;1.77;;;37.50;45.00;;;;;;5088684;28;20075;-82
2021/06/14 12:54:59;;;;;;;2.38;1.73;;;37.50;45.00;;;;;;5111598;28;20035;-82
2021/06/14 12:57:39;;;;;;;2.58;1.85;;;37.60;45.00;;;;;;5120173;28;20023;-82
2021/06/14 13:00:13;;;;;;;3.22;2.17;;;37.70;45.00;;;;;;5087326;28;20032;-81